Portada
METAR-TAF:

METAR-TAF

Aeropuertos :

Udine, Italia

latitud: 45-59N, longitud: 013-02E, altitud: 51 m

Observación

El informe se hizo hace 6 horas y 31 minutos, a las 14:55 UTC
Viento 5 kt del sur-suroeste
Temperatura 15°C
Humedad 33%
Presión 1029 hPa
Visibilidad 10 km o más
sin nubes por debajo de 1500 m y sin presencia de cumulonimbus.

METAR: LIPI 031455Z 21005KT CAVOK 15/M01 Q1029 RMK BKN SCT140 SCT200 VIS MIN 9999 WIND THR06 25005KT WIND THR24 VRB05KT BLU

Hora: 22:26 (21:26 UTC)

Pronóstico

El informe se hizo hace 7 horas y 26 minutos, a las 14:00 UTC
Pronóstico válido del 03 a las 15 UTC al 03 a las 24 UTC
Viento 5 kt del sur-suroeste
Visibilidad 10 km o más
sin nubes por debajo de 1500 m y sin presencia de cumulonimbus.
Temporalmente
del 03 a las 18 UTC al 03 a las 24 UTC
Visibilidad: 7000 m
Nubes dispersas a una altura de 8000 ft

TAF: LIPI 031400Z 0315/0324 20005KT CAVOK TEMPO 0318/0324 7000 SCT080

Observaciones y pronósticos meteorológicos de más de 4000 aeropuertos (mensajes METAR y TAF).

Los puntos amarillos y rojos representan las estaciones disponibles.

Ponga el ratón en el punto deseado para ver el nombre de la estación.

Haga clic para ver las observaciones y los pronósticos meteorológicos.

Para cambiar el mapa : haga clic en los botones verdes con una cruz de color negro para hacer un zoom, en el botón verde con un guión para alejar o en las flechas verdes para mapas adyacentes.


METAR-TAF: